Terminal Aerodrome Forecast
Issued by NWS

Home | Current Version | Previous Version | Text Only | Print | Product List | Glossary On
Versions: 1 2 3 4 5 6 7 8 9 10 11 12
000
FTUS43 KEAX 060500
TAFMKC
TAF
KMKC 060520Z 0606/0706 18010KT P6SM BKN250
     FM061700 20012G20KT P6SM SCT050
     FM070000 20012G20KT P6SM VCTS SCT025CB OVC030
      TEMPO 0700/0703 2SM TSRA OVC015CB
     FM070500 35013KT P6SM SCT018 OVC025=

USA.gov is the U.S. government's official web portal to all federal, state and local government web resources and services.